Time;durP1;ratioP1;P1;durP2;ratioP2;P2;SDS_P1;SDS_P2;PMS_P1;PMS_P2;Temp;Humidity;BMP_temperature;BMP_pressure;BME280_temperature;BME280_humidity;BME280_pressure;Samples;Min_cycle;Max_cycle;Signal;HPM_P1;HPM_P2
2022/08/30 00:01:08;;;;;;;;;;;17.70;62.50;;;;;;5088710;28;19974;-79
2022/08/30 00:03:44;;;;;;;;;;;17.70;62.50;;;;;;5070817;28;20397;-79
2022/08/30 00:06:10;;;;;;;;;;;17.70;62.60;;;;;;5088827;28;19915;-79
2022/08/30 00:08:36;;;;;;;;;;;17.70;62.60;;;;;;5070511;28;20279;-79
2022/08/30 00:11:03;;;;;;;;;;;17.70;62.60;;;;;;5088714;28;19912;-79
2022/08/30 00:13:29;;;;;;;;;;;17.70;62.60;;;;;;5070515;28;19919;-79
2022/08/30 00:15:55;;;;;;;;;;;17.70;63.10;;;;;;5073909;28;20435;-79
2022/08/30 00:18:21;;;;;;;;;;;17.70;62.60;;;;;;5092752;28;19920;-79
2022/08/30 00:20:48;;;;;;;;;;;17.60;62.50;;;;;;5074563;28;19915;-79
2022/08/30 00:23:13;;;;;;;;;;;17.60;62.50;;;;;;5092624;28;20031;-79
2022/08/30 00:25:39;;;;;;;;;;;17.70;62.60;;;;;;5092552;28;20045;-79
2022/08/30 00:28:05;;;;;;;;;;;17.70;62.60;;;;;;5074321;28;19920;-79
2022/08/30 00:30:31;;;;;;;;;;;17.70;62.60;;;;;;5057389;28;19908;-79
2022/08/30 00:32:56;;;;;;;;;;;17.70;62.50;;;;;;5074180;28;20007;-79
2022/08/30 00:35:22;;;;;;;;;;;17.80;62.60;;;;;;5092460;28;19921;-79
2022/08/30 00:37:49;;;;;;;;;;;17.80;62.50;;;;;;5092067;28;19927;-79
2022/08/30 00:40:16;;;;;;;;;;;17.80;62.50;;;;;;5073919;28;20010;-78
2022/08/30 00:42:42;;;;;;;;;;;17.80;62.50;;;;;;5092375;28;19912;-79
2022/08/30 00:45:14;;;;;;;;;;;17.90;62.50;;;;;;5073762;28;19916;-79
2022/08/30 00:47:39;;;;;;;;;;;17.90;62.50;;;;;;5073942;28;20389;-79
2022/08/30 00:50:07;;;;;;;;;;;17.80;62.50;;;;;;5092122;28;19913;-79
2022/08/30 00:52:34;;;;;;;;;;;17.80;62.50;;;;;;5091882;28;19912;-79
2022/08/30 00:55:00;;;;;;;;;;;17.80;62.50;;;;;;5073652;28;19954;-79
2022/08/30 00:57:27;;;;;;;;;;;17.70;62.50;;;;;;5092010;28;19908;-79
2022/08/30 00:59:53;;;;;;;;;;;17.70;62.60;;;;;;5073821;28;19908;-79
2022/08/30 01:02:20;;;;;;;;;;;17.70;62.60;;;;;;5073780;28;20038;-79
2022/08/30 01:04:46;;;;;;;;;;;17.70;62.60;;;;;;5091770;28;19908;-79
2022/08/30 01:07:12;;;;;;;;;;;17.70;62.60;;;;;;5073301;28;19920;-79
2022/08/30 01:09:38;;;;;;;;;;;17.70;62.60;;;;;;5073422;28;19912;-79
2022/08/30 01:12:04;;;;;;;;;;;17.70;62.60;;;;;;5107287;28;19923;-78
2022/08/30 01:14:32;;;;;;;;;;;17.80;62.70;;;;;;5091808;28;19908;-78
2022/08/30 01:16:59;;;;;;;;;;;17.80;62.60;;;;;;5073281;28;19908;-78
2022/08/30 01:19:43;;;;;;;;;;;17.90;62.60;;;;;;5073227;28;19908;-79
2022/08/30 01:22:29;;;;;;;;;;;17.90;62.60;;;;;;5073252;28;19912;-79
2022/08/30 01:24:56;;;;;;;;;;;17.90;62.60;;;;;;5091183;28;20439;-79
2022/08/30 01:27:22;;;;;;;;;;;17.80;62.60;;;;;;5072432;28;19908;-78
2022/08/30 01:29:49;;;;;;;;;;;17.80;62.60;;;;;;5091508;28;20352;-79
2022/08/30 01:32:17;;;;;;;;;;;17.80;62.70;;;;;;5056676;28;19973;-79
2022/08/30 01:34:44;;;;;;;;;;;17.80;62.60;;;;;;5073399;28;19962;-79
2022/08/30 01:37:09;;;;;;;;;;;17.80;62.70;;;;;;5073355;28;19912;-79
2022/08/30 01:39:35;;;;;;;;;;;17.70;62.60;;;;;;5073344;28;19958;-78
2022/08/30 01:42:01;;;;;;;;;;;17.70;62.60;;;;;;5056404;28;19936;-79
2022/08/30 01:44:27;;;;;;;;;;;17.70;62.60;;;;;;5091159;28;19947;-79
2022/08/30 01:46:53;;;;;;;;;;;17.70;62.70;;;;;;5091291;28;19954;-79
2022/08/30 01:49:19;;;;;;;;;;;17.60;62.70;;;;;;5056330;28;19923;-79
2022/08/30 01:51:44;;;;;;;;;;;17.60;62.70;;;;;;5073025;28;20291;-79
2022/08/30 01:54:11;;;;;;;;;;;17.60;62.70;;;;;;5072892;28;20007;-79
2022/08/30 01:56:36;;;;;;;;;;;17.60;62.70;;;;;;5072559;28;19919;-78
2022/08/30 01:59:02;;;;;;;;;;;17.60;62.80;;;;;;5090705;28;19909;-78
2022/08/30 02:01:28;;;;;;;;;;;17.60;62.80;;;;;;5072731;28;20283;-79
2022/08/30 02:03:55;;;;;;;;;;;17.60;62.80;;;;;;5055990;28;19916;-79
2022/08/30 02:06:21;;;;;;;;;;;17.50;62.70;;;;;;5072505;28;19915;-79
2022/08/30 02:08:47;;;;;;;;;;;17.50;62.70;;;;;;5072521;28;19912;-79
2022/08/30 02:11:13;;;;;;;;;;;17.50;62.80;;;;;;5072366;28;19916;-79
2022/08/30 02:13:40;;;;;;;;;;;17.40;62.70;;;;;;5055823;28;19919;-79
2022/08/30 02:16:06;;;;;;;;;;;17.40;62.80;;;;;;5090615;28;19918;-79
2022/08/30 02:18:33;;;;;;;;;;;17.40;62.80;;;;;;5072392;28;19912;-79
2022/08/30 02:20:59;;;;;;;;;;;17.30;62.80;;;;;;5090421;28;19912;-79
2022/08/30 02:23:25;;;;;;;;;;;17.40;62.90;;;;;;5071992;28;19916;-77
2022/08/30 02:25:51;;;;;;;;;;;17.30;62.80;;;;;;5072024;28;20272;-77
2022/08/30 02:28:18;;;;;;;;;;;17.30;62.80;;;;;;5090369;28;19912;-77
2022/08/30 02:30:44;;;;;;;;;;;17.30;62.80;;;;;;5072219;28;20007;-77
2022/08/30 02:33:10;;;;;;;;;;;17.30;62.80;;;;;;5072283;28;19914;-77
2022/08/30 02:35:36;;;;;;;;;;;17.30;63.30;;;;;;5072238;28;20010;-77
2022/08/30 02:38:01;;;;;;;;;;;17.30;62.90;;;;;;5071760;28;19912;-77
2022/08/30 02:40:27;;;;;;;;;;;17.30;62.90;;;;;;5089954;28;19920;-77
2022/08/30 02:42:52;;;;;;;;;;;17.20;62.90;;;;;;5071722;28;19923;-77
2022/08/30 02:45:18;;;;;;;;;;;17.30;62.90;;;;;;5071500;28;19916;-77
2022/08/30 02:47:43;;;;;;;;;;;17.30;62.90;;;;;;5071817;28;20015;-77
2022/08/30 02:50:09;;;;;;;;;;;17.30;62.90;;;;;;5071899;28;20337;-77
2022/08/30 02:52:35;;;;;;;;;;;17.30;62.90;;;;;;5089795;28;19919;-77
2022/08/30 02:55:02;;;;;;;;;;;17.30;62.90;;;;;;5071589;28;19908;-77
2022/08/30 02:57:27;;;;;;;;;;;17.30;63.00;;;;;;5089408;28;19908;-77
2022/08/30 02:59:53;;;;;;;;;;;17.30;62.90;;;;;;5089408;28;19912;-77
2022/08/30 03:02:18;;;;;;;;;;;17.20;62.90;;;;;;5071372;28;19938;-77
2022/08/30 03:04:44;;;;;;;;;;;17.20;63.00;;;;;;5089431;28;19912;-77
2022/08/30 03:07:11;;;;;;;;;;;17.20;63.00;;;;;;5071423;28;19912;-77
2022/08/30 03:09:37;;;;;;;;;;;17.20;63.00;;;;;;5089343;28;20291;-77
2022/08/30 03:12:04;;;;;;;;;;;17.20;63.00;;;;;;5071196;28;19999;-77
2022/08/30 03:14:30;;;;;;;;;;;17.20;63.00;;;;;;5054413;28;19965;-77
2022/08/30 03:16:56;;;;;;;;;;;17.20;63.00;;;;;;5071298;28;19919;-77
2022/08/30 03:19:22;;;;;;;;;;;17.20;63.00;;;;;;5089197;28;19987;-80
2022/08/30 03:21:49;;;;;;;;;;;17.20;63.00;;;;;;5089060;28;20336;-77
2022/08/30 03:24:14;;;;;;;;;;;17.20;62.90;;;;;;5070994;28;20356;-78
2022/08/30 03:26:40;;;;;;;;;;;17.20;63.00;;;;;;5054423;28;19912;-78
2022/08/30 03:29:05;;;;;;;;;;;17.20;62.90;;;;;;5088872;28;19912;-78
2022/08/30 03:31:31;;;;;;;;;;;17.20;62.90;;;;;;5054157;28;20387;-78
2022/08/30 03:33:57;;;;;;;;;;;17.20;63.00;;;;;;5070782;28;19912;-78
2022/08/30 03:36:22;;;;;;;;;;;17.20;63.00;;;;;;5070765;28;19912;-78
2022/08/30 03:38:48;;;;;;;;;;;17.20;63.00;;;;;;5070617;28;19916;-78
2022/08/30 03:41:14;;;;;;;;;;;17.20;63.00;;;;;;5089114;28;20368;-78
2022/08/30 03:43:40;;;;;;;;;;;17.20;63.00;;;;;;5088744;28;19998;-78
2022/08/30 03:46:06;;;;;;;;;;;17.30;62.90;;;;;;5088998;28;20054;-78
2022/08/30 03:48:32;;;;;;;;;;;17.30;62.80;;;;;;5088636;28;19913;-79
2022/08/30 03:50:57;;;;;;;;;;;17.30;62.80;;;;;;5070301;28;19923;-78
2022/08/30 03:53:23;;;;;;;;;;;17.20;62.80;;;;;;5088567;28;19976;-78
2022/08/30 03:55:48;;;;;;;;;;;17.20;62.90;;;;;;5088559;28;20360;-78
2022/08/30 03:58:15;;;;;;;;;;;17.20;62.90;;;;;;5053801;28;19962;-78
2022/08/30 04:00:40;;;;;;;;;;;17.10;62.90;;;;;;5070650;28;20278;-78
2022/08/30 04:03:06;;;;;;;;;;;17.10;62.90;;;;;;5070250;28;20006;-78
2022/08/30 04:05:31;;;;;;;;;;;17.00;62.90;;;;;;5070640;28;19997;-78
2022/08/30 04:07:57;;;;;;;;;;;17.10;63.00;;;;;;5070232;28;20158;-78
2022/08/30 04:10:23;;;;;;;;;;;17.10;63.00;;;;;;5088645;28;19912;-79
2022/08/30 04:12:49;;;;;;;;;;;17.00;62.90;;;;;;5070542;28;19923;-78
2022/08/30 04:15:15;;;;;;;;;;;17.10;62.90;;;;;;5053688;28;19919;-78
2022/08/30 04:17:41;;;;;;;;;;;17.10;62.90;;;;;;5070418;28;20363;-78
2022/08/30 04:20:07;;;;;;;;;;;17.10;62.80;;;;;;5088477;28;19912;-78
2022/08/30 04:22:32;;;;;;;;;;;17.10;62.70;;;;;;5088355;28;20368;-78
2022/08/30 04:24:58;;;;;;;;;;;17.00;63.20;;;;;;5070372;28;19916;-79
2022/08/30 04:27:23;;;;;;;;;;;17.00;62.80;;;;;;5070161;28;20325;-78
2022/08/30 04:29:49;;;;;;;;;;;16.90;62.70;;;;;;5070156;28;19919;-78
2022/08/30 04:32:15;;;;;;;;;;;16.90;62.80;;;;;;5070145;28;20077;-78
2022/08/30 04:34:41;;;;;;;;;;;16.80;62.80;;;;;;5088386;28;19915;-78
2022/08/30 04:37:06;;;;;;;;;;;16.70;62.80;;;;;;5070248;28;19908;-78
2022/08/30 04:39:32;;;;;;;;;;;16.60;62.90;;;;;;5088363;28;19915;-78
2022/08/30 04:41:58;;;;;;;;;;;16.60;62.90;;;;;;5088060;28;19924;-78
2022/08/30 04:44:26;;;;;;;;;;;16.50;62.90;;;;;;5053495;28;20023;-78
2022/08/30 04:46:52;;;;;;;;;;;16.50;63.00;;;;;;5088300;28;19912;-78
2022/08/30 04:49:17;;;;;;;;;;;16.50;63.00;;;;;;5053304;28;20383;-78
2022/08/30 04:51:43;;;;;;;;;;;16.50;63.00;;;;;;5088103;28;20286;-78
2022/08/30 04:54:08;;;;;;;;;;;16.50;62.90;;;;;;5070036;28;19915;-78
2022/08/30 04:56:34;;;;;;;;;;;16.50;62.90;;;;;;5069915;28;20007;-78
2022/08/30 04:59:00;;;;;;;;;;;16.60;62.90;;;;;;5088187;28;20356;-78
2022/08/30 05:01:26;;;;;;;;;;;16.50;62.80;;;;;;5088964;28;19962;-78
2022/08/30 05:03:53;;;;;;;;;;;16.60;62.80;;;;;;5073483;28;20344;-78
2022/08/30 05:06:19;;;;;;;;;;;16.60;62.80;;;;;;5073282;28;19916;-79
2022/08/30 05:08:45;;;;;;;;;;;16.60;62.80;;;;;;5073338;28;19918;-79
2022/08/30 05:11:10;;;;;;;;;;;16.50;62.80;;;;;;5091690;28;20407;-78
2022/08/30 05:13:36;;;;;;;;;;;16.50;62.80;;;;;;5091486;28;19919;-78
2022/08/30 05:16:03;;;;;;;;;;;16.50;62.80;;;;;;5091588;28;19908;-78
2022/08/30 05:18:28;;;;;;;;;;;16.40;62.80;;;;;;5073789;28;19919;-78
2022/08/30 05:21:11;;;;;;;;;;;16.30;62.80;;;;;;5072912;28;19916;-78
2022/08/30 05:23:37;;;;;;;;;;;16.30;62.90;;;;;;5073060;28;19916;-78
2022/08/30 05:26:04;;;;;;;;;;;16.20;62.80;;;;;;5072974;28;19919;-77
2022/08/30 05:28:29;;;;;;;;;;;16.20;62.90;;;;;;5056328;28;19916;-78
2022/08/30 05:30:55;;;;;;;;;;;16.10;62.90;;;;;;5056464;28;19960;-78
2022/08/30 05:33:20;;;;;;;;;;;16.10;62.90;;;;;;5091457;28;19919;-78
2022/08/30 05:35:46;;;;;;;;;;;16.10;63.00;;;;;;5073054;28;20252;-78
2022/08/30 05:38:11;;;;;;;;;;;16.10;62.90;;;;;;5090878;28;19912;-78
2022/08/30 05:40:41;;;;;;;;;;;16.10;62.80;;;;;;5072500;28;20159;-78
2022/08/30 05:43:07;;;;;;;;;;;16.10;62.80;;;;;;5072795;28;19912;-77
2022/08/30 05:45:32;;;;;;;;;;;16.10;62.80;;;;;;5056282;28;20008;-77
2022/08/30 05:47:58;;;;;;;;;;;16.10;63.30;;;;;;5056117;28;19923;-78
2022/08/30 05:50:23;;;;;;;;;;;16.20;62.80;;;;;;5056018;28;19916;-78
2022/08/30 05:52:49;;;;;;;;;;;16.20;62.70;;;;;;5072526;28;19912;-78
2022/08/30 05:55:15;;;;;;;;;;;16.20;62.70;;;;;;5072681;28;19912;-78
2022/08/30 05:57:40;;;;;;;;;;;16.20;62.70;;;;;;5056053;28;19957;-78
2022/08/30 06:00:08;;;;;;;;;;;16.20;62.70;;;;;;5072522;28;19913;-78
2022/08/30 06:02:33;;;;;;;;;;;16.20;62.70;;;;;;5090809;28;19912;-78
2022/08/30 06:05:00;;;;;;;;;;;16.20;62.70;;;;;;5055609;28;20363;-78
2022/08/30 06:07:26;;;;;;;;;;;16.30;62.70;;;;;;5090248;28;19996;-78
2022/08/30 06:09:51;;;;;;;;;;;16.20;62.60;;;;;;5073227;28;19969;-79
2022/08/30 06:12:17;;;;;;;;;;;16.20;62.60;;;;;;5072334;28;19912;-78
2022/08/30 06:14:43;;;;;;;;;;;16.20;62.60;;;;;;5072358;28;19927;-78
2022/08/30 06:17:09;;;;;;;;;;;16.20;62.60;;;;;;5090204;28;19916;-78
2022/08/30 06:19:35;;;;;;;;;;;16.30;62.60;;;;;;5089862;28;20290;-78
2022/08/30 06:22:00;;;;;;;;;;;16.40;62.60;;;;;;5071879;28;19916;-78
2022/08/30 06:24:26;;;;;;;;;;;16.50;62.60;;;;;;5089975;28;19912;-78
2022/08/30 06:26:52;;;;;;;;;;;16.50;62.40;;;;;;5071927;28;20383;-78
2022/08/30 06:29:18;;;;;;;;;;;16.60;62.40;;;;;;5089819;28;19959;-78
2022/08/30 06:31:44;;;;;;;;;;;16.70;62.50;;;;;;5071898;28;20187;-78
2022/08/30 06:34:10;;;;;;;;;;;16.70;62.50;;;;;;5055081;28;19919;-78
2022/08/30 06:36:36;;;;;;;;;;;16.70;62.70;;;;;;5073191;28;19908;-78
2022/08/30 06:39:02;;;;;;;;;;;16.70;62.70;;;;;;5071699;28;19916;-78
2022/08/30 06:41:29;;;;;;;;;;;16.70;62.80;;;;;;5089429;28;19993;-78
2022/08/30 06:43:55;;;;;;;;;;;16.70;62.90;;;;;;5089824;28;20397;-78
2022/08/30 06:46:26;;;;;;;;;;;16.80;63.00;;;;;;5071453;28;20283;-79
2022/08/30 06:48:52;;;;;;;;;;;16.80;63.00;;;;;;5071252;28;19934;-77
2022/08/30 06:51:19;;;;;;;;;;;16.90;63.10;;;;;;5089611;28;19923;-78
2022/08/30 06:53:44;;;;;;;;;;;16.90;63.10;;;;;;5071128;28;19915;-78
2022/08/30 06:56:10;;;;;;;;;;;17.00;63.10;;;;;;5071373;28;19908;-78
2022/08/30 06:58:37;;;;;;;;;;;17.10;63.60;;;;;;5089034;28;19910;-79
2022/08/30 07:01:03;;;;;;;;;;;17.10;62.90;;;;;;5070641;28;19956;-79
2022/08/30 07:03:28;;;;;;;;;;;17.20;63.00;;;;;;5088842;28;19916;-79
2022/08/30 07:05:55;;;;;;;;;;;17.60;63.60;;;;;;5070967;28;19912;-79
2022/08/30 07:08:21;;;;;;;;;;;18.10;62.90;;;;;;5089223;28;19931;-78
2022/08/30 07:10:47;;;;;;;;;;;18.50;62.70;;;;;;5088830;28;20370;-79
2022/08/30 07:13:13;;;;;;;;;;;18.90;62.40;;;;;;5089043;28;20006;-79
2022/08/30 07:15:40;;;;;;;;;;;19.30;62.00;;;;;;5071067;28;20011;-79
2022/08/30 07:20:49;;;;;;;;;;;19.20;61.80;;;;;;5089278;28;19915;-79
2022/08/30 07:23:15;;;;;;;;;;;19.00;62.00;;;;;;5070435;28;19930;-79
2022/08/30 07:25:41;;;;;;;;;;;18.90;62.10;;;;;;5069840;28;20008;-80
2022/08/30 07:28:07;;;;;;;;;;;18.90;62.50;;;;;;5053754;28;19978;-80
2022/08/30 07:30:33;;;;;;;;;;;19.20;63.00;;;;;;5088820;28;19908;-79
2022/08/30 07:32:58;;;;;;;;;;;19.80;63.10;;;;;;5088449;28;19908;-79
2022/08/30 07:35:24;;;;;;;;;;;20.30;62.30;;;;;;5088631;28;19995;-79
2022/08/30 07:37:50;;;;;;;;;;;20.60;61.70;;;;;;5070209;28;20023;-79
2022/08/30 07:40:15;;;;;;;;;;;20.60;61.70;;;;;;5069624;28;19957;-79
2022/08/30 07:42:41;;;;;;;;;;;20.90;62.20;;;;;;5088322;28;19930;-78
2022/08/30 07:45:10;;;;;;;;;;;21.20;62.10;;;;;;5088524;28;20467;-79
2022/08/30 07:47:35;;;;;;;;;;;21.80;62.10;;;;;;5070194;28;20231;-79
2022/08/30 07:50:02;;;;;;;;;;;22.20;61.70;;;;;;5070406;28;19908;-79
2022/08/30 07:52:28;;;;;;;;;;;22.60;62.00;;;;;;5069164;28;19916;-78
2022/08/30 07:54:55;;;;;;;;;;;23.60;62.50;;;;;;5088392;28;20396;-79
2022/08/30 07:57:20;;;;;;;;;;;24.90;62.40;;;;;;5070261;28;20287;-79
2022/08/30 07:59:46;;;;;;;;;;;26.00;62.00;;;;;;5088507;28;19912;-80
2022/08/30 08:02:12;;;;;;;;;;;26.80;61.50;;;;;;5070577;28;19923;-79
2022/08/30 08:04:37;;;;;;;;;;;27.60;61.80;;;;;;5088754;28;20473;-79
2022/08/30 08:07:03;;;;;;;;;;;28.40;61.50;;;;;;5070302;28;19923;-79
2022/08/30 08:09:29;;;;;;;;;;;29.00;61.40;;;;;;5088661;28;20352;-79
2022/08/30 08:11:54;;;;;;;;;;;29.10;61.40;;;;;;5089008;28;19912;-79
2022/08/30 08:14:22;;;;;;;;;;;29.30;61.80;;;;;;5070622;28;19919;-79
2022/08/30 08:16:47;;;;;;;;;;;29.60;62.00;;;;;;5088080;28;19912;-79
2022/08/30 08:19:13;;;;;;;;;;;29.90;61.80;;;;;;5088992;28;19965;-80
2022/08/30 08:21:38;;;;;;;;;;;30.10;62.00;;;;;;5088675;28;19961;-80
2022/08/30 08:24:04;;;;;;;;;;;30.30;61.70;;;;;;5088012;28;19916;-79
2022/08/30 08:26:32;;;;;;;;;;;30.70;61.70;;;;;;5070036;28;19908;-80
2022/08/30 08:28:58;;;;;;;;;;;31.20;61.90;;;;;;5088600;28;19912;-79
2022/08/30 08:31:25;;;;;;;;;;;31.50;61.70;;;;;;5054022;28;20394;-80
2022/08/30 08:33:50;;;;;;;;;;;31.60;61.90;;;;;;5088734;28;19908;-79
2022/08/30 08:36:17;;;;;;;;;;;31.70;62.00;;;;;;5072649;28;19961;-80
2022/08/30 08:38:43;;;;;;;;;;;31.90;62.40;;;;;;5074563;28;20321;-79
2022/08/30 08:41:14;;;;;;;;;;;32.30;62.70;;;;;;5091709;28;19928;-80
2022/08/30 08:43:40;;;;;;;;;;;32.60;62.60;;;;;;5092115;28;20360;-80
2022/08/30 08:46:12;;;;;;;;;;;32.70;62.60;;;;;;5091776;28;19928;-80
2022/08/30 08:48:37;;;;;;;;;;;32.70;62.50;;;;;;5092509;28;20295;-79
2022/08/30 08:53:59;;;;;;;;;;;32.10;63.10;;;;;;5081419;28;19923;-79
2022/08/30 08:56:25;;;;;;;;;;;32.20;63.30;;;;;;5078095;28;19943;-77
2022/08/30 08:58:52;;;;;;;;;;;32.10;63.50;;;;;;5087215;28;20430;-79
2022/08/30 09:01:19;;;;;;;;;;;32.20;63.40;;;;;;5110777;28;20328;-80
2022/08/30 09:03:45;;;;;;;;;;;32.20;63.50;;;;;;5091795;28;19911;-79
2022/08/30 09:06:20;;;;;;;;;;;32.20;63.90;;;;;;5092341;28;19936;-81
2022/08/30 09:08:46;;;;;;;;;;;32.30;64.00;;;;;;5090169;28;19915;-81
2022/08/30 09:11:16;;;;;;;;;;;32.50;64.00;;;;;;5075883;28;19912;-81
2022/08/30 09:13:42;;;;;;;;;;;32.70;63.70;;;;;;5105287;28;19931;-81
2022/08/30 09:16:07;;;;;;;;;;;32.90;63.60;;;;;;5092658;28;19921;-81
2022/08/30 09:18:44;;;;;;;;;;;32.90;63.70;;;;;;5074033;28;19911;-81
2022/08/30 09:21:10;;;;;;;;;;;32.90;63.60;;;;;;5089191;28;19956;-81
2022/08/30 09:23:45;;;;;;;;;;;33.30;64.00;;;;;;5110927;28;19960;-80
2022/08/30 09:26:12;;;;;;;;;;;33.40;63.30;;;;;;5108401;28;20419;-80
2022/08/30 09:28:47;;;;;;;;;;;33.10;63.60;;;;;;5091680;28;19916;-79
2022/08/30 09:31:21;;;;;;;;;;;33.20;64.10;;;;;;5091520;28;19911;-79
2022/08/30 09:34:05;;;;;;;;;;;33.50;63.70;;;;;;5100528;28;19993;-79
2022/08/30 09:36:38;;;;;;;;;;;33.60;64.00;;;;;;5108047;28;19916;-79
2022/08/30 09:39:06;;;;;;;;;;;33.80;63.90;;;;;;5107330;28;19912;-80
2022/08/30 09:41:34;;;;;;;;;;;33.90;64.00;;;;;;5091854;28;19985;-79
2022/08/30 09:44:13;;;;;;;;;;;34.20;64.00;;;;;;5110019;28;19915;-78
2022/08/30 09:46:52;;;;;;;;;;;34.00;63.60;;;;;;5110362;28;19915;-80
2022/08/30 09:49:27;;;;;;;;;;;33.80;63.80;;;;;;5090615;28;19981;-80
2022/08/30 09:52:00;;;;;;;;;;;34.00;63.90;;;;;;5087921;28;19911;-80
2022/08/30 09:54:34;;;;;;;;;;;34.30;63.90;;;;;;5093569;28;20325;-80
2022/08/30 09:57:18;;;;;;;;;;;34.50;63.70;;;;;;5111814;28;19908;-81
2022/08/30 09:59:47;;;;;;;;;;;34.70;63.70;;;;;;5093426;28;19919;-80
2022/08/30 10:02:23;;;;;;;;;;;34.70;63.60;;;;;;5110845;28;20052;-80
2022/08/30 10:04:53;;;;;;;;;;;34.40;63.50;;;;;;5089261;28;19915;-80
2022/08/30 10:07:24;;;;;;;;;;;34.20;63.50;;;;;;5091082;28;20007;-80
2022/08/30 10:09:53;;;;;;;;;;;33.80;63.60;;;;;;5090731;28;19909;-82
2022/08/30 10:12:35;;;;;;;;;;;33.70;64.00;;;;;;5089160;28;19988;-81
2022/08/30 10:15:10;;;;;;;;;;;33.70;64.00;;;;;;5090986;28;19948;-81
2022/08/30 10:17:54;;;;;;;;;;;33.80;64.20;;;;;;5094500;28;19908;-82
2022/08/30 10:20:25;;;;;;;;;;;33.90;64.10;;;;;;5095397;28;19908;-81
2022/08/30 10:23:06;;;;;;;;;;;34.20;64.40;;;;;;5094424;28;19953;-81
2022/08/30 10:25:40;;;;;;;;;;;34.60;64.10;;;;;;5112976;28;19915;-81
2022/08/30 10:28:14;;;;;;;;;;;34.70;63.90;;;;;;5093741;28;20437;-80
2022/08/30 10:30:46;;;;;;;;;;;34.50;63.80;;;;;;5111893;28;20351;-80
2022/08/30 10:33:17;;;;;;;;;;;34.20;64.10;;;;;;5079802;28;19912;-81
2022/08/30 10:35:48;;;;;;;;;;;34.10;64.10;;;;;;5091168;28;19990;-79
2022/08/30 10:38:13;;;;;;;;;;;34.20;63.90;;;;;;5090322;28;19908;-82
2022/08/30 10:43:30;;;;;;;;;;;34.30;63.90;;;;;;5105641;28;19914;-78
2022/08/30 10:45:59;;;;;;;;;;;34.20;64.20;;;;;;5111255;28;20016;-78
2022/08/30 10:48:34;;;;;;;;;;;34.00;64.30;;;;;;5110634;28;20413;-78
2022/08/30 10:51:03;;;;;;;;;;;33.70;64.50;;;;;;5091995;28;20018;-78
2022/08/30 10:53:37;;;;;;;;;;;33.50;64.90;;;;;;5110481;28;19912;-77
2022/08/30 10:56:10;;;;;;;;;;;33.30;64.80;;;;;;5111086;28;20399;-77
2022/08/30 10:58:38;;;;;;;;;;;33.60;65.10;;;;;;5091547;28;19961;-78
2022/08/30 11:01:06;;;;;;;;;;;34.00;64.60;;;;;;5078382;28;19912;-78
2022/08/30 11:03:52;;;;;;;;;;;34.30;64.40;;;;;;5074439;28;19994;-78
2022/08/30 11:06:44;;;;;;;;;;;34.50;64.00;;;;;;5071852;28;19916;-78
2022/08/30 11:09:25;;;;;;;;;;;34.60;63.80;;;;;;5089729;28;20324;-78
2022/08/30 11:12:29;;;;;;;;;;;34.90;64.30;;;;;;5110385;28;19955;-79
2022/08/30 11:14:55;;;;;;;;;;;35.00;63.60;;;;;;5047688;28;19912;-77
2022/08/30 11:17:36;;;;;;;;;;;34.70;63.40;;;;;;5030235;28;20007;-78
2022/08/30 11:20:04;;;;;;;;;;;34.90;63.80;;;;;;5073288;28;20309;-77
2022/08/30 11:22:36;;;;;;;;;;;35.10;63.90;;;;;;5091775;28;20366;-80
2022/08/30 11:25:07;;;;;;;;;;;35.20;64.30;;;;;;5109612;28;19912;-78
2022/08/30 11:27:38;;;;;;;;;;;35.10;63.70;;;;;;5110045;28;19957;-77
2022/08/30 11:30:22;;;;;;;;;;;35.10;63.90;;;;;;5109329;28;19980;-77
2022/08/30 11:33:02;;;;;;;;;;;34.90;63.80;;;;;;5089463;28;20747;-77
2022/08/30 11:35:35;;;;;;;;;;;33.70;63.60;;;;;;5109371;28;19908;-79
2022/08/30 11:38:09;;;;;;;;;;;33.10;64.40;;;;;;5070979;28;19916;-71
2022/08/30 11:40:44;;;;;;;;;;;32.70;65.30;;;;;;5109161;28;19923;-76
2022/08/30 11:43:29;;;;;;;;;;;32.90;65.70;;;;;;5109506;28;19907;-75
2022/08/30 11:46:12;;;;;;;;;;;33.10;65.60;;;;;;5108763;28;19908;-75
2022/08/30 11:48:50;;;;;;;;;;;33.20;65.70;;;;;;5105180;28;19931;-78
2022/08/30 11:51:22;;;;;;;;;;;33.50;65.40;;;;;;5109951;28;19907;-79
2022/08/30 11:54:08;;;;;;;;;;;33.70;65.00;;;;;;5109444;28;19916;-80
2022/08/30 11:56:42;;;;;;;;;;;33.60;64.90;;;;;;5076855;28;20411;-74
2022/08/30 11:59:17;;;;;;;;;;;33.40;64.70;;;;;;5091143;28;19912;-78
2022/08/30 12:01:43;;;;;;;;;;;33.50;64.90;;;;;;5089549;28;20442;-76
2022/08/30 12:04:11;;;;;;;;;;;33.50;64.50;;;;;;5093652;28;20041;-75
2022/08/30 12:06:40;;;;;;;;;;;33.50;64.70;;;;;;5109402;28;19912;-76
2022/08/30 12:09:10;;;;;;;;;;;33.30;65.20;;;;;;5109579;28;19999;-77
2022/08/30 12:11:37;;;;;;;;;;;33.50;65.40;;;;;;5112415;28;19912;-74
2022/08/30 12:14:03;;;;;;;;;;;33.50;65.60;;;;;;5112816;28;19915;-74
2022/08/30 12:18:26;;;;;;;;;;;33.70;65.40;;;;;;5113076;28;20268;-79
2022/08/30 12:19:24;;;;;;;;;;;33.90;65.50;;;;;;5113793;28;20587;-78
2022/08/30 12:21:54;;;;;;;;;;;34.20;65.10;;;;;;5095778;28;20279;-77
2022/08/30 12:24:25;;;;;;;;;;;33.80;64.40;;;;;;5113174;28;20003;-78
2022/08/30 12:26:51;;;;;;;;;;;33.70;64.70;;;;;;5112733;28;20313;-78
2022/08/30 12:29:23;;;;;;;;;;;33.70;64.50;;;;;;5095027;28;20006;-78
2022/08/30 12:31:48;;;;;;;;;;;33.60;64.60;;;;;;5092127;28;20372;-76
2022/08/30 12:34:32;;;;;;;;;;;33.90;64.80;;;;;;5109201;28;19969;-82
2022/08/30 12:36:58;;;;;;;;;;;34.10;64.00;;;;;;5112834;28;19919;-76
2022/08/30 12:39:26;;;;;;;;;;;33.00;63.40;;;;;;5094527;28;19908;-80
2022/08/30 12:41:52;;;;;;;;;;;32.00;64.60;;;;;;5094516;28;19920;-81
2022/08/30 12:44:23;;;;;;;;;;;31.70;64.40;;;;;;5113188;28;19991;-82
2022/08/30 12:46:51;;;;;;;;;;;31.10;64.10;;;;;;5095116;28;19914;-82
2022/08/30 12:49:18;;;;;;;;;;;30.40;64.30;;;;;;5112950;28;19915;-82
2022/08/30 12:51:43;;;;;;;;;;;29.60;64.50;;;;;;5113030;28;19915;-79
2022/08/30 12:54:20;;;;;;;;;;;29.10;65.60;;;;;;5074287;28;19916;-76
2022/08/30 12:56:45;;;;;;;;;;;29.30;66.00;;;;;;5096728;28;19908;-80
2022/08/30 12:59:31;;;;;;;;;;;29.30;65.50;;;;;;5112761;28;19908;-78
2022/08/30 13:02:05;;;;;;;;;;;29.50;65.70;;;;;;5109096;28;19912;-78
2022/08/30 13:04:30;;;;;;;;;;;29.60;65.20;;;;;;5103270;28;19948;-79
2022/08/30 13:06:57;;;;;;;;;;;29.70;65.30;;;;;;5113198;28;19912;-77
2022/08/30 13:09:25;;;;;;;;;;;29.90;65.00;;;;;;5113292;28;20382;-79
2022/08/30 13:11:51;;;;;;;;;;;29.70;64.90;;;;;;5113084;28;19908;-79
2022/08/30 13:14:19;;;;;;;;;;;29.50;65.20;;;;;;5112464;28;20398;-75
2022/08/30 13:16:44;;;;;;;;;;;29.70;65.10;;;;;;5092553;28;20371;-74
2022/08/30 13:19:36;;;;;;;;;;;29.60;64.20;;;;;;5093328;28;19911;-76
2022/08/30 13:22:02;;;;;;;;;;;29.20;63.80;;;;;;5086439;28;19908;-78
2022/08/30 13:24:28;;;;;;;;;;;29.00;64.50;;;;;;5109033;28;19923;-77
2022/08/30 13:26:55;;;;;;;;;;;29.00;64.70;;;;;;5094015;28;20371;-77
2022/08/30 13:29:22;;;;;;;;;;;29.00;64.90;;;;;;5086572;28;19912;-77
2022/08/30 13:31:48;;;;;;;;;;;28.80;64.50;;;;;;5109298;28;19912;-78
2022/08/30 13:34:17;;;;;;;;;;;28.50;64.70;;;;;;5111224;28;20290;-77
2022/08/30 13:36:48;;;;;;;;;;;28.30;64.60;;;;;;5086913;28;20411;-78
2022/08/30 13:39:13;;;;;;;;;;;28.20;64.50;;;;;;5112032;28;19933;-78
2022/08/30 13:41:39;;;;;;;;;;;27.90;64.10;;;;;;5098766;28;20384;-78
2022/08/30 13:44:05;;;;;;;;;;;27.50;63.80;;;;;;5083252;28;19916;-78
2022/08/30 13:46:31;;;;;;;;;;;27.20;63.50;;;;;;5111688;28;19914;-78
2022/08/30 13:48:59;;;;;;;;;;;26.90;63.30;;;;;;5093030;28;20007;-78
2022/08/30 13:51:25;;;;;;;;;;;26.50;63.20;;;;;;5086507;28;19964;-78
2022/08/30 13:53:50;;;;;;;;;;;26.00;63.30;;;;;;5090307;28;19915;-78
2022/08/30 13:56:16;;;;;;;;;;;25.80;63.30;;;;;;5076833;28;19915;-77
2022/08/30 13:58:41;;;;;;;;;;;25.60;63.20;;;;;;5073251;28;20145;-78
2022/08/30 14:01:07;;;;;;;;;;;25.40;63.10;;;;;;5080025;28;19950;-77
2022/08/30 14:03:33;;;;;;;;;;;25.40;63.10;;;;;;5088061;28;19957;-78
2022/08/30 14:05:58;;;;;;;;;;;25.40;62.90;;;;;;5093497;28;19924;-79
2022/08/30 14:08:29;;;;;;;;;;;25.40;62.80;;;;;;5111388;28;19919;-78
2022/08/30 14:10:56;;;;;;;;;;;25.40;62.60;;;;;;5111612;28;19912;-77
2022/08/30 14:13:21;;;;;;;;;;;25.40;62.10;;;;;;5092880;28;20014;-76
2022/08/30 14:15:47;;;;;;;;;;;25.40;61.80;;;;;;5111700;28;20015;-78
2022/08/30 14:18:13;;;;;;;;;;;25.20;62.00;;;;;;5119256;27;19956;-75
2022/08/30 14:20:39;;;;;;;;;;;25.10;62.00;;;;;;5080098;28;19920;-77
2022/08/30 14:23:05;;;;;;;;;;;25.00;62.20;;;;;;5086894;28;20006;-76
2022/08/30 14:25:30;;;;;;;;;;;25.00;62.60;;;;;;5091900;28;19931;-77
2022/08/30 14:27:56;;;;;;;;;;;25.10;62.40;;;;;;5107345;27;19939;-77
2022/08/30 14:30:22;;;;;;;;;;;25.20;62.20;;;;;;5109512;28;19955;-76